Time;durP1;ratioP1;P1;durP2;ratioP2;P2;SDS_P1;SDS_P2;PMS_P1;PMS_P2;Temp;Humidity;BMP_temperature;BMP_pressure;BME280_temperature;BME280_humidity;BME280_pressure;Samples;Min_cycle;Max_cycle;Signal;HPM_P1;HPM_P2
2022/08/27 00:01:15;;;;;;;17.10;11.88;;;;;;;20.79;59.60;100015.69;1654840;85;25724;-68
2022/08/27 00:03:43;;;;;;;13.55;11.20;;;;;;;20.75;59.62;100015.45;1655358;85;25548;-68
2022/08/27 00:06:13;;;;;;;18.07;11.68;;;;;;;20.68;59.65;100009.33;1655672;85;28052;-69
2022/08/27 00:08:42;;;;;;;18.05;11.15;;;;;;;20.64;60.02;99998.33;1654482;85;25854;-69
2022/08/27 00:11:10;;;;;;;18.23;11.83;;;;;;;20.61;59.94;99996.91;1654515;85;29646;-68
2022/08/27 00:13:38;;;;;;;16.10;12.73;;;;;;;20.61;59.94;99996.91;1654387;86;25449;-68
2022/08/27 00:16:08;;;;;;;14.18;11.60;;;;;;;20.56;60.30;99994.52;1656596;85;25827;-68
2022/08/27 00:18:36;;;;;;;20.45;13.55;;;;;;;20.51;60.44;99995.07;1641611;85;27932;-68
2022/08/27 00:21:04;;;;;;;13.45;11.78;;;;;;;20.47;60.56;99994.27;1653993;85;25962;-68
2022/08/27 00:23:30;;;;;;;16.37;12.25;;;;;;;20.42;60.81;99990.52;1673911;84;25494;-69
2022/08/27 00:25:59;;;;;;;17.40;12.18;;;;;;;20.37;60.77;99982.64;1662072;84;25452;-69
2022/08/27 00:28:27;;;;;;;18.40;11.90;;;;;;;20.32;61.11;99981.62;1663618;84;25652;-69
2022/08/27 00:30:54;;;;;;;16.87;12.13;;;;;;;20.30;61.33;99979.85;1659539;84;27384;-69
2022/08/27 00:33:22;;;;;;;13.83;11.75;;;;;;;20.25;61.55;99980.21;1664132;84;25446;-69
2022/08/27 00:35:49;;;;;;;18.10;12.00;;;;;;;20.22;61.62;99976.85;1661133;84;25537;-69
2022/08/27 00:38:17;;;;;;;14.75;11.28;;;;;;;20.18;61.66;99976.83;1652666;84;25829;-68
2022/08/27 00:40:44;;;;;;;18.85;12.65;;;;;;;20.14;61.70;99970.51;1662973;84;25673;-68
2022/08/27 00:43:11;;;;;;;18.32;12.55;;;;;;;20.10;61.93;99969.11;1664882;84;27315;-68
2022/08/27 00:45:41;;;;;;;16.10;12.40;;;;;;;20.08;62.19;99972.05;1655302;85;25800;-68
2022/08/27 00:48:11;;;;;;;16.02;11.80;;;;;;;20.06;62.46;99971.66;1655908;86;25535;-68
2022/08/27 00:50:43;;;;;;;17.75;12.10;;;;;;;20.03;62.54;99970.45;1654863;85;25446;-68
2022/08/27 00:53:21;;;;;;;12.98;11.63;;;;;;;20.01;62.83;99978.87;1632593;85;25442;-69
2022/08/27 00:56:11;;;;;;;17.92;12.25;;;;;;;19.98;62.86;99980.41;1655056;85;30873;-69
2022/08/27 00:58:43;;;;;;;16.55;12.03;;;;;;;19.96;63.12;99979.41;1654702;85;25687;-69
2022/08/27 01:01:14;;;;;;;15.78;13.18;;;;;;;19.95;62.94;99976.48;1655247;85;25399;-70
2022/08/27 01:03:46;;;;;;;14.55;12.13;;;;;;;19.94;63.01;99979.01;1655522;85;26005;-70
2022/08/27 01:06:15;;;;;;;14.03;11.78;;;;;;;19.94;63.27;99980.38;1655827;85;25638;-70
2022/08/27 01:08:46;;;;;;;14.87;11.90;;;;;;;19.91;63.15;99977.61;1654723;86;27358;-70
2022/08/27 01:11:13;;;;;;;15.85;12.23;;;;;;;19.91;63.17;99976.23;1654825;85;25560;-70
2022/08/27 01:13:39;;;;;;;18.37;11.73;;;;;;;19.88;63.20;99977.77;1651549;86;25570;-70
2022/08/27 01:16:08;;;;;;;18.85;13.03;;;;;;;19.87;63.26;99974.03;1655853;85;25875;-70
2022/08/27 01:18:36;;;;;;;13.53;11.95;;;;;;;19.83;63.32;99974.00;1655688;85;25583;-70
2022/08/27 01:21:20;;;;;;;19.70;11.73;;;;;;;19.82;63.30;99971.64;1662655;85;27917;-70
2022/08/27 01:24:07;;;;;;;17.40;12.25;;;;;;;19.78;63.34;99964.75;1650838;86;25707;-70
2022/08/27 01:26:34;;;;;;;22.75;12.73;;;;;;;19.74;63.50;99964.72;1655685;85;25780;-70
2022/08/27 01:29:00;;;;;;;16.00;11.70;;;;;;;19.72;63.70;99969.00;1654569;85;25695;-70
2022/08/27 01:31:28;;;;;;;16.93;12.65;;;;;;;19.70;63.74;99973.49;1655041;85;25625;-70
2022/08/27 01:33:59;;;;;;;18.87;13.80;;;;;;;19.69;63.95;99971.13;1654487;85;28042;-70
2022/08/27 01:36:26;;;;;;;15.08;13.22;;;;;;;19.66;64.02;99968.53;1660967;85;25603;-70
2022/08/27 01:38:52;;;;;;;23.27;12.43;;;;;;;19.64;64.15;99968.73;1662009;85;25631;-70
2022/08/27 01:41:21;;;;;;;17.55;12.82;;;;;;;19.59;64.24;99959.66;1655683;85;25623;-70
2022/08/27 01:43:48;;;;;;;15.75;12.55;;;;;;;19.58;64.64;99960.84;1654453;85;25908;-70
2022/08/27 01:46:16;;;;;;;18.05;13.03;;;;;;;19.56;64.49;99956.89;1654960;85;28039;-70
2022/08/27 01:48:43;;;;;;;17.32;12.68;;;;;;;19.52;64.57;99956.86;1659861;84;25930;-70
2022/08/27 01:51:09;;;;;;;16.62;12.50;;;;;;;19.50;65.07;99959.79;1661881;84;25867;-69
2022/08/27 01:53:35;;;;;;;15.23;12.10;;;;;;;19.47;64.79;99967.39;1663694;84;26038;-69
2022/08/27 01:56:03;;;;;;;19.30;12.55;;;;;;;19.45;64.99;99966.39;1665989;84;25463;-69
2022/08/27 01:58:32;;;;;;;18.30;12.45;;;;;;;19.41;64.88;99963.63;1654600;84;28121;-69
2022/08/27 02:01:04;;;;;;;19.92;12.60;;;;;;;19.39;64.97;99963.78;1665416;84;25736;-68
2022/08/27 02:03:35;;;;;;;17.40;12.73;;;;;;;19.35;65.23;99956.89;1665601;84;25562;-69
2022/08/27 02:06:03;;;;;;;;;;;;;;;19.33;65.27;99965.30;1665187;84;25814;-68
2022/08/27 02:08:29;;;;;;;16.20;12.70;;;;;;;19.28;65.59;99965.05;1655581;85;25560;-68
2022/08/27 02:10:56;;;;;;;17.55;13.20;;;;;;;19.19;65.53;99959.09;1655421;85;28005;-68
2022/08/27 02:13:23;;;;;;;16.73;12.13;;;;;;;19.12;65.52;99967.22;1654334;85;25872;-68
2022/08/27 02:15:49;;;;;;;15.18;12.50;;;;;;;19.05;65.51;99959.70;1654917;85;25693;-68
2022/08/27 02:18:17;;;;;;;17.55;13.03;;;;;;;19.02;65.91;99960.47;1650980;86;25500;-68
2022/08/27 02:20:47;;;;;;;19.42;13.65;;;;;;;19.00;65.92;99966.33;1654663;85;25400;-68
2022/08/27 02:23:15;;;;;;;17.77;13.45;;;;;;;18.95;66.06;99961.17;1654461;85;27193;-69
2022/08/27 02:25:42;;;;;;;15.45;12.63;;;;;;;18.91;66.21;99952.70;1655625;85;25447;-68
2022/08/27 02:28:08;;;;;;;17.67;12.55;;;;;;;18.88;66.24;99958.33;1654980;85;25463;-68
2022/08/27 02:30:36;;;;;;;18.32;13.28;;;;;;;18.86;66.24;99951.06;1653566;86;25848;-68
2022/08/27 02:33:04;;;;;;;17.77;14.00;;;;;;;18.85;66.28;99955.77;1633218;86;25446;-68
2022/08/27 02:35:34;;;;;;;19.48;14.07;;;;;;;18.85;66.50;99956.36;1654325;85;27317;-68
2022/08/27 02:38:01;;;;;;;18.57;13.62;;;;;;;18.81;66.77;99957.66;1655480;85;25811;-68
2022/08/27 02:40:28;;;;;;;16.75;13.13;;;;;;;18.78;66.94;99960.33;1655504;85;25467;-68
2022/08/27 02:42:54;;;;;;;18.50;12.73;;;;;;;18.74;67.00;99956.77;1654638;85;26266;-68
2022/08/27 02:45:21;;;;;;;16.90;12.75;;;;;;;18.72;67.01;99958.51;1655231;86;25808;-68
2022/08/27 02:47:47;;;;;;;19.10;13.60;;;;;;;18.73;67.28;99970.24;1655321;85;27308;-68
2022/08/27 02:50:15;;;;;;;16.90;13.00;;;;;;;18.73;67.29;99972.98;1646058;86;25749;-68
2022/08/27 02:52:44;;;;;;;16.80;13.20;;;;;;;18.70;67.24;99968.27;1652333;86;25574;-68
2022/08/27 02:55:11;;;;;;;19.87;13.93;;;;;;;18.70;67.34;99969.64;1656049;85;33400;-68
2022/08/27 02:57:38;;;;;;;17.70;13.35;;;;;;;18.68;67.54;99968.64;1654551;85;25431;-68
2022/08/27 03:00:10;;;;;;;16.32;13.58;;;;;;;18.66;67.66;99967.64;1655052;85;29527;-68
2022/08/27 03:02:36;;;;;;;15.78;13.38;;;;;;;18.63;67.46;99964.86;1656976;85;25401;-68
2022/08/27 03:05:04;;;;;;;17.00;12.90;;;;;;;18.60;67.62;99967.75;1653385;85;25434;-68
2022/08/27 03:07:30;;;;;;;20.68;14.83;;;;;;;18.58;67.71;99968.70;1627136;85;25834;-68
2022/08/27 03:09:56;;;;;;;19.85;13.83;;;;;;;18.52;67.80;99962.55;1654634;85;25820;-68
2022/08/27 03:12:23;;;;;;;17.52;13.72;;;;;;;18.50;67.88;99966.24;1655036;85;27419;-68
2022/08/27 03:14:49;;;;;;;20.15;13.40;;;;;;;18.47;67.86;99967.76;1654721;85;25706;-68
2022/08/27 03:20:00;;;;;;;20.23;14.30;;;;;;;18.42;68.06;99966.71;1655294;85;27562;-68
2022/08/27 03:22:27;;;;;;;20.17;13.85;;;;;;;18.39;68.39;99963.34;1654718;86;25780;-68
2022/08/27 03:24:54;;;;;;;16.23;13.75;;;;;;;18.38;68.38;99968.03;1654413;85;27524;-68
2022/08/27 03:27:21;;;;;;;15.83;12.07;;;;;;;18.37;68.31;99969.21;1654870;85;25707;-68
2022/08/27 03:29:47;;;;;;;16.15;12.40;;;;;;;18.35;68.15;99971.50;1654406;85;25907;-67
2022/08/27 03:32:13;;;;;;;15.08;12.60;;;;;;;18.33;68.33;99965.61;1656772;85;25658;-68
2022/08/27 03:34:39;;;;;;;17.55;13.72;;;;;;;18.28;68.29;99965.94;1655329;85;25434;-68
2022/08/27 03:37:05;;;;;;;19.37;12.68;;;;;;;18.24;68.19;99963.14;1656130;85;27994;-69
2022/08/27 03:39:31;;;;;;;18.70;12.80;;;;;;;18.20;68.14;99962.31;1654910;85;25795;-68
2022/08/27 03:41:58;;;;;;;20.92;12.63;;;;;;;18.18;68.24;99960.50;1655076;85;25762;-68
2022/08/27 03:44:24;;;;;;;16.80;13.65;;;;;;;18.16;68.42;99962.83;1655559;85;25796;-68
2022/08/27 03:46:51;;;;;;;14.43;12.37;;;;;;;18.13;68.37;99959.45;1655351;85;25414;-68
2022/08/27 03:49:20;;;;;;;15.78;12.78;;;;;;;18.13;68.54;99954.56;1655627;85;27929;-68
2022/08/27 03:51:47;;;;;;;16.37;13.00;;;;;;;18.10;68.67;99954.73;1655276;85;25717;-68
2022/08/27 03:54:13;;;;;;;20.25;13.58;;;;;;;18.07;68.71;99947.25;1647427;85;25693;-68
2022/08/27 03:56:40;;;;;;;17.42;13.22;;;;;;;18.06;68.87;99956.02;1654608;85;25870;-68
2022/08/27 03:59:07;;;;;;;18.02;13.32;;;;;;;18.04;68.84;99953.45;1654428;85;25693;-68
2022/08/27 04:01:33;;;;;;;22.60;15.05;;;;;;;18.02;69.05;99953.82;1655098;85;27398;-68
2022/08/27 04:03:59;;;;;;;21.37;14.03;;;;;;;18.02;69.45;99948.35;1656009;85;25586;-68
2022/08/27 04:06:27;;;;;;;15.48;13.22;;;;;;;18.01;69.50;99950.86;1654954;85;25791;-67
2022/08/27 04:08:53;;;;;;;17.65;13.40;;;;;;;18.02;69.65;99950.30;1655002;85;25722;-67
2022/08/27 04:11:20;;;;;;;17.02;13.32;;;;;;;18.02;69.55;99948.94;1654354;85;25365;-67
2022/08/27 04:13:47;;;;;;;15.38;13.72;;;;;;;18.03;69.55;99955.41;1655541;85;27420;-67
2022/08/27 04:16:13;;;;;;;16.97;13.43;;;;;;;18.02;69.54;99957.92;1653452;85;25800;-68
2022/08/27 04:18:39;;;;;;;17.90;14.13;;;;;;;18.02;69.59;99953.05;1621668;86;25479;-68
2022/08/27 04:21:11;;;;;;;19.32;14.33;;;;;;;18.01;69.75;99954.19;1654760;85;25545;-67
2022/08/27 04:23:40;;;;;;;17.15;14.15;;;;;;;18.02;69.76;99953.82;1654822;85;25428;-68
2022/08/27 04:26:09;;;;;;;23.25;13.00;;;;;;;18.02;69.79;99953.05;1654000;85;32976;-68
2022/08/27 04:28:36;;;;;;;16.82;13.45;;;;;;;18.02;69.84;99951.09;1649039;85;25582;-68
2022/08/27 04:31:03;;;;;;;19.77;14.40;;;;;;;18.02;70.07;99946.20;1658351;85;25756;-68
2022/08/27 04:33:31;;;;;;;20.15;13.75;;;;;;;18.01;70.07;99949.50;1663223;85;25589;-68
2022/08/27 04:36:01;;;;;;;19.85;14.03;;;;;;;18.05;70.15;99949.58;1655516;85;25881;-68
2022/08/27 04:38:27;;;;;;;19.25;13.40;;;;;;;18.06;70.31;99949.77;1654778;85;27388;-68
2022/08/27 04:43:39;;;;;;;16.15;14.03;;;;;;;18.15;70.74;99954.42;1645259;85;25429;-68
2022/08/27 04:46:07;;;;;;;17.10;13.28;;;;;;;18.19;70.87;99955.25;1654927;85;26332;-68
2022/08/27 04:48:35;;;;;;;15.58;13.25;;;;;;;18.25;70.91;99963.37;1656666;85;25802;-68
2022/08/27 04:51:01;;;;;;;16.35;13.08;;;;;;;18.29;71.04;99962.05;1654845;85;27326;-68
2022/08/27 04:53:27;;;;;;;15.63;13.00;;;;;;;18.35;70.98;99957.03;1655011;85;25649;-68
2022/08/27 04:55:56;;;;;;;17.92;13.58;;;;;;;18.39;71.06;99957.86;1655375;85;25772;-68
2022/08/27 04:58:25;;;;;;;19.10;12.93;;;;;;;18.44;71.08;99955.61;1655449;85;25613;-68
2022/08/27 05:00:55;;;;;;;15.53;13.05;;;;;;;18.50;71.07;99962.91;1649013;86;25623;-68
2022/08/27 05:03:24;;;;;;;17.52;13.80;;;;;;;18.54;71.10;99970.62;1655567;85;27336;-69
2022/08/27 05:05:53;;;;;;;17.60;13.45;;;;;;;18.61;71.06;99959.75;1650544;86;25657;-68
2022/08/27 05:08:19;;;;;;;15.93;13.98;;;;;;;18.67;71.21;99969.79;1653897;85;25620;-68
2022/08/27 05:10:49;;;;;;;15.93;14.23;;;;;;;18.74;71.12;99971.84;1654347;85;25886;-68
2022/08/27 05:13:18;;;;;;;18.40;14.98;;;;;;;18.81;71.26;99970.55;1654817;85;25646;-68
2022/08/27 05:15:46;;;;;;;17.35;14.53;;;;;;;18.89;71.36;99964.62;1654558;85;27327;-68
2022/08/27 05:18:13;;;;;;;20.30;14.00;;;;;;;18.96;71.49;99962.73;1653833;85;25590;-68
2022/08/27 05:20:47;;;;;;;20.23;14.58;;;;;;;19.08;71.52;99965.03;1654674;85;25627;-68
2022/08/27 05:23:16;;;;;;;18.55;14.47;;;;;;;19.16;71.46;99963.36;1655268;85;26161;-68
2022/08/27 05:25:45;;;;;;;;;;;;;;;19.22;71.23;99964.61;1655968;85;25450;-68
2022/08/27 05:28:13;;;;;;;18.25;14.87;;;;;;;19.34;71.29;99962.75;1655106;85;27392;-68
2022/08/27 05:30:46;;;;;;;19.55;15.05;;;;;;;19.42;71.24;99960.29;1655452;85;25774;-68
2022/08/27 05:33:15;;;;;;;21.48;15.43;;;;;;;19.52;71.11;99958.23;1655210;85;25592;-68
2022/08/27 05:35:45;;;;;;;20.62;14.07;;;;;;;19.64;71.09;99960.50;1654819;85;25905;-68
2022/08/27 05:38:12;;;;;;;20.65;14.95;;;;;;;19.76;71.07;99957.48;1653936;85;25385;-68
2022/08/27 05:40:40;;;;;;;18.82;15.08;;;;;;;19.87;70.90;99957.00;1654376;85;28073;-68
2022/08/27 05:43:07;;;;;;;21.93;14.33;;;;;;;20.00;70.74;99961.59;1657637;85;25723;-68
2022/08/27 05:45:43;;;;;;;19.80;14.87;;;;;;;20.13;70.74;99962.87;1655119;85;25614;-68
2022/08/27 05:48:12;;;;;;;20.62;15.23;;;;;;;20.26;70.49;99968.04;1656105;86;25863;-68
2022/08/27 05:50:40;;;;;;;19.92;14.03;;;;;;;20.40;70.38;99963.22;1655134;85;25444;-68
2022/08/27 05:53:06;;;;;;;22.98;14.38;;;;;;;20.53;70.38;99962.53;1654758;85;27313;-68
2022/08/27 05:55:43;;;;;;;23.60;14.28;;;;;;;20.68;70.28;99959.27;1647596;85;25862;-68
2022/08/27 06:01:03;;;;;;;25.08;14.63;;;;;;;20.84;70.19;99960.34;1640092;85;25641;-68
2022/08/27 06:03:25;;;;;;;17.40;14.00;;;;;;;21.18;69.70;99961.44;1656461;85;25413;-69
2022/08/27 06:06:05;;;;;;;18.67;14.00;;;;;;;21.36;68.81;99971.67;1655249;85;29472;-69
2022/08/27 06:08:31;;;;;;;17.27;13.50;;;;;;;21.49;68.72;99967.98;1654314;85;25688;-68
2022/08/27 06:11:04;;;;;;;22.67;13.28;;;;;;;21.65;68.46;99969.77;1655445;85;25573;-68
2022/08/27 06:13:32;;;;;;;17.55;13.10;;;;;;;21.83;68.41;99969.20;1653996;85;25903;-68
2022/08/27 06:16:08;;;;;;;17.98;14.40;;;;;;;22.04;68.43;99968.98;1656056;85;25487;-68
2022/08/27 06:18:37;;;;;;;21.85;14.50;;;;;;;22.23;67.75;99971.91;1658148;85;27402;-68
2022/08/27 06:21:05;;;;;;;19.87;13.28;;;;;;;22.45;67.62;99969.14;1654654;85;25711;-68
2022/08/27 06:23:33;;;;;;;19.57;13.75;;;;;;;22.67;67.42;99967.89;1654670;85;25667;-68
2022/08/27 06:26:00;;;;;;;19.27;14.70;;;;;;;22.88;66.81;99970.36;1654482;85;25818;-68
2022/08/27 06:28:31;;;;;;;19.95;14.03;;;;;;;23.11;66.44;99961.63;1655542;85;25428;-68
2022/08/27 06:31:14;;;;;;;14.98;12.95;;;;;;;23.34;66.07;99961.08;1655055;86;27914;-69
2022/08/27 06:33:43;;;;;;;18.95;12.65;;;;;;;23.61;65.71;99952.22;1654438;85;25666;-68
2022/08/27 06:36:13;;;;;;;17.20;12.80;;;;;;;23.89;65.30;99958.15;1656067;85;25728;-68
2022/08/27 06:38:43;;;;;;;18.02;13.13;;;;;;;24.14;64.72;99955.73;1655716;85;25681;-68
2022/08/27 06:41:13;;;;;;;16.23;12.40;;;;;;;24.42;63.74;99959.58;1655667;85;25915;-68
2022/08/27 06:43:42;;;;;;;17.85;13.22;;;;;;;24.69;63.13;99959.50;1657367;85;27315;-68
2022/08/27 06:46:13;;;;;;;19.80;12.80;;;;;;;24.94;62.61;99955.04;1654545;85;25413;-68
2022/08/27 06:48:43;;;;;;;18.90;12.25;;;;;;;25.24;62.06;99961.77;1655788;86;25749;-68
2022/08/27 06:51:13;;;;;;;17.27;12.65;;;;;;;25.51;61.15;99963.94;1654630;85;25394;-68
2022/08/27 06:53:42;;;;;;;16.25;12.23;;;;;;;25.77;60.13;99965.70;1656247;85;25796;-68
2022/08/27 06:56:11;;;;;;;15.65;12.23;;;;;;;26.02;59.30;99972.24;1655628;85;27404;-68
2022/08/27 06:58:37;;;;;;;15.00;11.70;;;;;;;26.28;59.00;99971.19;1656063;86;25621;-68
2022/08/27 07:01:14;;;;;;;14.60;11.85;;;;;;;26.62;58.53;99962.63;1656277;85;25879;-68
2022/08/27 07:03:42;;;;;;;18.25;11.83;;;;;;;26.91;57.35;99964.03;1656510;85;25579;-70
2022/08/27 07:06:11;;;;;;;18.67;12.18;;;;;;;27.19;56.59;99959.25;1654665;85;25705;-69
2022/08/27 07:08:38;;;;;;;19.98;11.83;;;;;;;27.48;55.52;99960.59;1655171;85;28114;-69
2022/08/27 07:11:07;;;;;;;23.20;11.75;;;;;;;27.75;55.10;99962.52;1647519;86;25632;-69
2022/08/27 07:13:34;;;;;;;16.40;11.57;;;;;;;28.08;54.47;99964.51;1654561;85;25878;-69
2022/08/27 07:16:10;;;;;;;16.42;11.85;;;;;;;28.40;53.80;99965.63;1656255;85;25623;-69
2022/08/27 07:18:39;;;;;;;21.70;12.18;;;;;;;28.66;52.44;99966.52;1642544;85;25843;-69
2022/08/27 07:21:06;;;;;;;14.20;11.33;;;;;;;28.93;52.40;99955.59;1655782;85;27379;-68
2022/08/27 07:23:35;;;;;;;20.40;11.57;;;;;;;29.23;51.14;99961.27;1657391;85;25755;-69
2022/08/27 07:26:11;;;;;;;14.98;10.98;;;;;;;29.48;50.55;99954.14;1651933;85;25816;-69
2022/08/27 07:28:39;;;;;;;14.28;11.55;;;;;;;29.74;50.21;99954.24;1655462;85;25603;-69
2022/08/27 07:31:09;;;;;;;13.15;10.80;;;;;;;30.06;49.39;99953.03;1674293;84;25910;-69
2022/08/27 07:33:37;;;;;;;12.60;11.25;;;;;;;30.30;49.01;99958.32;1657801;84;27333;-69
2022/08/27 07:36:05;;;;;;;17.75;11.53;;;;;;;30.55;47.98;99953.89;1608407;86;25640;-70
2022/08/27 07:38:33;;;;;;;22.93;11.78;;;;;;;30.70;47.17;99952.75;1603873;86;25772;-70
2022/08/27 07:41:10;;;;;;;17.60;11.27;;;;;;;30.97;46.80;99956.94;1619930;87;25720;-70
2022/08/27 07:46:23;;;;;;;23.73;12.20;;;;;;;31.47;45.47;99960.55;1626556;86;27122;-68
2022/08/27 07:48:51;;;;;;;12.55;11.12;;;;;;;31.70;44.67;99957.81;1629487;86;25651;-69
2022/08/27 07:51:21;;;;;;;17.45;11.28;;;;;;;31.94;43.95;99955.23;1658490;85;25608;-67
2022/08/27 07:53:47;;;;;;;18.32;10.78;;;;;;;32.29;43.63;99969.55;1626841;86;25532;-68
2022/08/27 07:56:15;;;;;;;14.83;10.13;;;;;;;32.73;42.87;99962.98;1646732;85;25569;-68
2022/08/27 07:58:42;;;;;;;13.30;10.72;;;;;;;33.01;42.53;99953.71;1659020;85;27345;-69
2022/08/27 08:01:10;;;;;;;16.93;10.90;;;;;;;33.01;42.53;99953.71;1657488;85;25699;-68
2022/08/27 08:03:36;;;;;;;15.53;10.80;;;;;;;33.25;41.72;99955.19;1627426;85;25519;-69
2022/08/27 08:06:11;;;;;;;17.77;11.60;;;;;;;33.50;41.35;99956.14;1626176;86;25655;-69
2022/08/27 08:08:39;;;;;;;14.03;10.18;;;;;;;33.70;40.62;99953.41;1661078;85;25462;-68
2022/08/27 08:11:11;;;;;;;15.23;10.65;;;;;;;33.88;40.00;99951.09;1652382;85;27312;-69
2022/08/27 08:13:38;;;;;;;20.17;9.95;;;;;;;34.13;39.58;99956.81;1629989;86;25901;-70
2022/08/27 08:16:05;;;;;;;14.28;10.90;;;;;;;34.33;39.14;99951.23;1655189;85;25756;-70
2022/08/27 08:18:34;;;;;;;15.65;10.30;;;;;;;34.54;38.65;99952.11;1651144;85;25611;-69
2022/08/27 08:21:07;;;;;;;16.50;10.88;;;;;;;34.73;38.00;99945.69;1640534;85;25897;-67
2022/08/27 08:23:33;;;;;;;17.00;10.75;;;;;;;34.96;37.51;99944.03;1656531;85;28131;-71
2022/08/27 08:26:01;;;;;;;14.13;10.15;;;;;;;35.14;37.31;99948.02;1658406;85;25860;-71
2022/08/27 08:28:29;;;;;;;13.72;10.53;;;;;;;35.25;37.15;99943.84;1659936;85;25824;-71
2022/08/27 08:30:58;;;;;;;19.52;11.15;;;;;;;35.42;36.83;99948.30;1653682;84;25695;-71
2022/08/27 08:33:26;;;;;;;15.25;10.82;;;;;;;35.57;36.30;99945.41;1681295;83;26030;-71
2022/08/27 08:35:57;;;;;;;12.65;10.50;;;;;;;35.73;36.40;99949.75;1687709;83;27394;-71
2022/08/27 08:38:24;;;;;;;11.53;10.32;;;;;;;36.03;36.49;99948.33;1682583;83;25492;-70
2022/08/27 08:40:53;;;;;;;17.67;10.93;;;;;;;36.26;35.13;99947.17;1683133;83;25762;-71
2022/08/27 08:43:40;;;;;;;13.68;10.85;;;;;;;36.45;35.05;99946.20;1679218;83;25842;-72
2022/08/27 08:46:35;;;;;;;15.38;10.38;;;;;;;36.67;34.94;99949.09;1671646;83;25702;-72
2022/08/27 08:49:35;;;;;;;13.55;9.65;;;;;;;36.73;33.91;99946.48;1653848;84;28077;-72
2022/08/27 08:52:09;;;;;;;13.53;10.50;;;;;;;36.72;33.90;99947.75;1678058;84;25426;-72
2022/08/27 08:54:38;;;;;;;11.22;9.55;;;;;;;36.94;33.57;99950.62;1679638;84;25932;-72
2022/08/27 08:57:20;;;;;;;13.65;10.28;;;;;;;37.14;33.62;99952.55;1675370;84;25886;-72
2022/08/27 08:59:58;;;;;;;13.50;10.28;;;;;;;37.28;33.19;99952.28;1677257;84;25520;-73
2022/08/27 09:02:24;;;;;;;17.57;11.18;;;;;;;37.37;32.91;99946.42;1668299;84;27110;-71
2022/08/27 09:04:50;;;;;;;15.45;9.60;;;;;;;37.51;32.22;99940.47;1631278;86;25764;-72
2022/08/27 09:07:32;;;;;;;14.90;9.78;;;;;;;37.67;32.21;99931.34;1665872;84;25465;-72
2022/08/27 09:10:40;;;;;;;13.28;9.35;;;;;;;37.88;31.77;99944.62;1636928;85;26195;-73
2022/08/27 09:13:12;;;;;;;17.15;9.85;;;;;;;37.98;31.05;99935.94;1655763;85;25707;-73
2022/08/27 09:15:40;;;;;;;15.75;10.35;;;;;;;37.97;31.29;99935.15;1617294;86;27520;-73
2022/08/27 09:18:13;;;;;;;15.72;10.20;;;;;;;38.13;31.25;99931.52;1624039;86;25856;-73
2022/08/27 09:20:43;;;;;;;13.20;10.55;;;;;;;38.32;30.65;99932.56;1651336;85;25813;-73
2022/08/27 09:23:27;;;;;;;13.78;9.90;;;;;;;38.59;30.52;99931.07;1638886;85;26197;-74
2022/08/27 09:25:53;;;;;;;9.75;8.85;;;;;;;38.82;30.05;99926.81;1648385;85;25949;-73
2022/08/27 09:31:16;;;;;;;11.10;8.43;;;;;;;39.13;28.47;99927.20;1674173;84;25636;-71
2022/08/27 09:33:42;;;;;;;15.68;8.75;;;;;;;39.27;28.03;99931.02;1654501;85;25401;-72
2022/08/27 09:36:14;;;;;;;13.95;8.30;;;;;;;39.25;27.60;99926.53;1656948;85;26454;-71
2022/08/27 09:38:57;;;;;;;11.88;8.30;;;;;;;39.31;27.15;99927.91;1643613;84;25533;-71
2022/08/27 09:41:29;;;;;;;12.73;7.90;;;;;;;39.48;26.87;99924.37;1668974;83;27337;-70
2022/08/27 09:44:09;;;;;;;9.75;7.05;;;;;;;39.62;26.69;99932.45;1646743;85;25759;-70
2022/08/27 09:46:35;;;;;;;15.75;7.42;;;;;;;39.70;25.45;99916.47;1637029;86;25867;-70
2022/08/27 09:49:14;;;;;;;13.45;7.33;;;;;;;39.66;25.20;99917.40;1681124;83;26667;-71
2022/08/27 09:54:44;;;;;;;10.38;6.42;;;;;;;39.78;25.56;99925.19;1684223;83;26558;-66
2022/08/27 09:57:14;;;;;;;12.40;6.20;;;;;;;39.77;25.51;99921.57;1686730;82;25740;-65
2022/08/27 09:59:46;;;;;;;12.23;6.87;;;;;;;39.84;24.99;99920.91;1677582;83;25683;-65
2022/08/27 10:02:17;;;;;;;12.45;6.78;;;;;;;39.84;24.86;99913.83;1661973;83;25728;-66
2022/08/27 10:04:49;;;;;;;11.35;6.90;;;;;;;39.91;24.16;99910.44;1673110;83;25685;-67
2022/08/27 10:07:55;;;;;;;13.28;6.70;;;;;;;39.65;23.83;99914.44;1689091;83;27295;-67
2022/08/27 10:10:37;;;;;;;12.55;6.22;;;;;;;39.47;23.25;99912.95;1692712;83;26032;-64
2022/08/27 10:13:17;;;;;;;9.33;5.97;;;;;;;39.36;23.83;99921.47;1704131;83;25814;-65
2022/08/27 10:19:35;;;;;;;10.48;6.70;;;;;;;39.30;23.54;99906.56;1669797;84;25784;-66
2022/08/27 10:22:19;;;;;;;9.98;5.30;;;;;;;39.35;23.15;99909.39;1638363;86;27378;-66
2022/08/27 10:25:12;;;;;;;8.05;6.10;;;;;;;39.31;24.21;99908.12;1630752;86;25873;-69
2022/08/27 10:28:11;;;;;;;9.30;5.53;;;;;;;39.63;23.43;99907.12;1641282;85;25863;-68
2022/08/27 10:30:58;;;;;;;8.03;5.67;;;;;;;39.73;22.27;99909.77;1643606;85;25832;-69
2022/08/27 10:33:48;;;;;;;9.05;4.95;;;;;;;39.55;21.90;99907.53;1632943;86;25735;-68
2022/08/27 10:36:43;;;;;;;9.15;4.95;;;;;;;39.80;22.22;99911.28;1642811;85;27414;-68
2022/08/27 10:39:38;;;;;;;9.95;5.42;;;;;;;40.00;22.05;99907.96;1622472;86;26071;-68
2022/08/27 10:42:33;;;;;;;9.10;5.67;;;;;;;40.30;21.37;99903.77;1614980;87;25898;-69
2022/08/27 10:45:23;;;;;;;9.83;5.70;;;;;;;40.64;21.29;99899.27;1575949;89;25626;-68
2022/08/27 10:48:10;;;;;;;11.90;5.60;;;;;;;40.90;20.94;99904.45;1590661;88;25650;-68
2022/08/27 10:50:45;;;;;;;10.67;5.60;;;;;;;41.26;20.77;99914.30;1597796;87;27335;-69
2022/08/27 10:53:37;;;;;;;9.00;5.67;;;;;;;41.26;20.77;99914.30;1641334;84;25779;-69
2022/08/27 10:56:25;;;;;;;10.55;5.42;;;;;;;41.18;20.59;99899.14;1681831;83;25311;-68
2022/08/27 10:59:27;;;;;;;9.68;5.65;;;;;;;41.30;20.40;99903.41;1658196;85;26300;-68
2022/08/27 11:01:59;;;;;;;8.65;5.42;;;;;;;41.58;20.68;99901.64;1663913;83;25693;-68
2022/08/27 11:04:31;;;;;;;7.28;5.50;;;;;;;41.86;20.15;99896.25;1658414;84;27337;-67
2022/08/27 11:07:19;;;;;;;9.00;5.12;;;;;;;41.97;19.98;99898.15;1661547;84;25693;-68
2022/08/27 11:09:59;;;;;;;12.05;5.10;;;;;;;41.83;19.20;99891.65;1667931;83;25789;-68
2022/08/27 11:12:33;;;;;;;9.93;6.03;;;;;;;41.73;19.57;99889.08;1670158;84;25614;-68
2022/08/27 11:15:11;;;;;;;9.75;5.42;;;;;;;41.80;19.32;99889.25;1673361;84;25923;-69
2022/08/27 11:17:42;;;;;;;6.83;5.10;;;;;;;41.57;19.41;99890.83;1673631;84;27331;-69
2022/08/27 11:20:38;;;;;;;12.05;5.30;;;;;;;41.75;19.60;99883.62;1659819;85;25738;-69
2022/08/27 11:23:17;;;;;;;8.25;5.20;;;;;;;41.89;19.13;99889.50;1665574;85;25502;-69
2022/08/27 11:26:00;;;;;;;9.28;5.75;;;;;;;42.25;18.75;99882.80;1642983;85;25742;-69
2022/08/27 11:28:43;;;;;;;12.00;5.65;;;;;;;41.99;18.98;99893.48;1656591;85;25688;-71
2022/08/27 11:31:30;;;;;;;11.85;5.50;;;;;;;42.02;18.87;99884.52;1664542;84;27346;-69
2022/08/27 11:34:26;;;;;;;9.07;5.73;;;;;;;42.16;18.39;99876.84;1661322;84;25516;-70
2022/08/27 11:37:39;;;;;;;9.75;5.20;;;;;;;41.86;18.16;99876.38;1675714;84;25743;-69
2022/08/27 11:40:37;;;;;;;7.33;5.70;;;;;;;41.95;17.84;99880.23;1675499;84;25818;-70
2022/08/27 11:43:10;;;;;;;9.65;5.50;;;;;;;41.94;17.92;99875.88;1668085;84;33289;-68
2022/08/27 11:45:40;;;;;;;12.33;6.20;;;;;;;42.18;17.91;99872.83;1637469;85;29591;-68
2022/08/27 11:48:21;;;;;;;10.32;6.33;;;;;;;42.38;17.90;99879.21;1666052;84;25511;-68
2022/08/27 11:51:08;;;;;;;12.78;5.95;;;;;;;42.57;17.79;99871.42;1660575;85;25502;-70
2022/08/27 11:53:40;;;;;;;7.12;5.45;;;;;;;42.82;17.71;99876.91;1667711;85;25746;-70
2022/08/27 11:56:14;;;;;;;10.65;6.62;;;;;;;43.10;16.88;99869.29;1640630;85;25797;-70
2022/08/27 11:58:43;;;;;;;10.25;6.70;;;;;;;43.09;16.33;99877.03;1666724;84;27293;-69
2022/08/27 12:01:30;;;;;;;10.05;6.85;;;;;;;43.09;16.20;99872.77;1668720;85;25370;-69